Time;durP1;ratioP1;P1;durP2;ratioP2;P2;SDS_P1;SDS_P2;PMS_P1;PMS_P2;Temp;Humidity;BMP_temperature;BMP_pressure;BME280_temperature;BME280_humidity;BME280_pressure;Samples;Min_cycle;Max_cycle;Signal;HPM_P1;HPM_P2
2022/03/03 00:01:02;;;;;;;;;77.25;63.50;;;;;9.18;56.94;101234.25;5076923;28;45496;-80
2022/03/03 00:03:27;;;;;;;;;76.25;58.25;;;;;9.25;56.99;101239.84;5074634;28;45871;-80
2022/03/03 00:06:02;;;;;;;;;81.75;66.50;;;;;9.39;57.23;101261.94;5074490;28;45442;-80
2022/03/03 00:08:31;;;;;;;;;79.75;60.25;;;;;9.36;57.50;101264.00;5037876;28;45784;-75
2022/03/03 00:11:23;;;;;;;;;76.25;60.25;;;;;9.33;57.55;101256.16;5074403;28;45315;-80
2022/03/03 00:13:51;;;;;;;;;74.75;57.00;;;;;9.28;57.38;101253.16;5047263;28;45707;-76
2022/03/03 00:16:16;;;;;;;;;75.25;60.00;;;;;9.27;57.32;101259.66;5072769;28;45572;-75
2022/03/03 00:18:42;;;;;;;;;80.00;61.50;;;;;9.23;57.67;101252.84;5074086;28;45403;-79
2022/03/03 00:21:11;;;;;;;;;76.25;61.00;;;;;9.17;57.52;101245.41;5074912;28;45781;-80
2022/03/03 00:23:36;;;;;;;;;77.75;58.75;;;;;9.10;58.10;101237.09;5074867;28;45516;-74
2022/03/03 00:26:05;;;;;;;;;79.50;59.00;;;;;9.14;58.11;101264.94;5053945;28;45726;-75
2022/03/03 00:28:31;;;;;;;;;76.00;57.50;;;;;9.05;57.99;101246.91;5072481;28;45794;-80
2022/03/03 00:31:00;;;;;;;;;75.50;57.75;;;;;9.07;58.29;101255.75;5073503;28;45813;-75
2022/03/03 00:33:29;;;;;;;;;78.00;61.50;;;;;9.11;58.16;101271.63;5054753;28;45791;-73
2022/03/03 00:35:54;;;;;;;;;73.25;57.75;;;;;9.11;58.32;101265.31;5054910;28;46820;-79
2022/03/03 00:38:20;;;;;;;;;74.75;57.75;;;;;9.12;58.08;101261.53;5073026;28;45356;-73
2022/03/03 00:40:46;;;;;;;;;76.75;56.25;;;;;9.12;58.20;101262.38;5066832;28;45475;-75
2022/03/03 00:43:17;;;;;;;;;76.75;57.50;;;;;9.16;58.29;101263.72;5053797;28;45547;-73
2022/03/03 00:45:43;;;;;;;;;74.50;56.50;;;;;9.14;58.74;101256.72;5051167;28;47357;-80
2022/03/03 00:48:08;;;;;;;;;74.00;57.25;;;;;9.13;58.54;101272.28;5033759;28;45384;-78
2022/03/03 00:50:34;;;;;;;;;67.50;50.00;;;;;9.15;58.60;101269.38;5050920;28;45317;-79
2022/03/03 00:53:00;;;;;;;;;76.00;58.25;;;;;9.13;58.29;101258.63;5053937;28;45681;-80
2022/03/03 00:55:26;;;;;;;;;77.50;59.25;;;;;9.16;58.40;101263.72;5055375;28;47033;-76
2022/03/03 00:57:51;;;;;;;;;74.50;57.50;;;;;9.16;58.01;101251.91;5052984;28;45794;-74
2022/03/03 01:00:20;;;;;;;;;76.00;56.50;;;;;9.24;58.00;101260.03;5051430;28;45836;-80
2022/03/03 01:02:47;;;;;;;;;74.00;56.25;;;;;9.26;57.96;101257.94;5053705;28;45740;-79
2022/03/03 01:05:16;;;;;;;;;72.75;57.00;;;;;9.29;57.77;101256.72;5035123;28;45771;-74
2022/03/03 01:07:45;;;;;;;;;73.25;55.00;;;;;9.31;57.85;101266.47;5053749;28;45454;-80
2022/03/03 01:10:11;;;;;;;;;73.75;56.25;;;;;9.31;57.97;101258.25;5052145;28;45868;-75
2022/03/03 01:12:37;;;;;;;;;74.00;55.00;;;;;9.31;57.86;101252.78;5052556;28;45843;-78
2022/03/03 01:15:09;;;;;;;;;72.50;55.25;;;;;9.35;57.69;101259.56;5066516;28;45430;-80
2022/03/03 01:17:38;;;;;;;;;70.00;53.25;;;;;9.37;58.01;101253.88;5054431;28;45537;-73
2022/03/03 01:20:08;;;;;;;;;75.50;56.50;;;;;9.38;57.88;101261.06;5056999;28;45355;-79
2022/03/03 01:22:36;;;;;;;;;72.50;54.75;;;;;9.38;57.78;101263.81;5077912;28;45878;-80
2022/03/03 01:25:05;;;;;;;;;74.25;55.75;;;;;9.38;57.63;101257.50;5076207;28;48902;-80
2022/03/03 01:27:32;;;;;;;;;69.75;54.75;;;;;9.39;57.79;101259.22;5063309;28;45460;-79
2022/03/03 01:29:58;;;;;;;;;70.75;55.25;;;;;9.36;57.76;101241.25;5086051;28;45157;-75
2022/03/03 01:32:24;;;;;;;;;74.25;58.00;;;;;9.39;57.93;101251.00;5054855;28;45767;-80
2022/03/03 01:34:49;;;;;;;;;73.00;56.00;;;;;9.39;58.05;101248.25;5057374;28;45419;-79
2022/03/03 01:37:17;;;;;;;;;70.50;54.50;;;;;9.38;57.67;101249.28;5038059;28;45364;-75
2022/03/03 01:39:55;;;;;;;;;72.50;56.00;;;;;9.34;57.77;101243.31;5057023;28;45323;-75
2022/03/03 01:42:27;;;;;;;;;76.75;58.75;;;;;9.40;57.75;101249.94;5074280;28;45614;-78
2022/03/03 01:44:53;;;;;;;;;74.50;56.75;;;;;9.33;58.02;101228.78;5077298;28;47543;-80
2022/03/03 01:47:23;;;;;;;;;76.75;56.00;;;;;9.29;57.80;101232.94;5057734;28;45484;-78
2022/03/03 01:49:57;;;;;;;;;73.75;56.50;;;;;9.32;57.95;101243.50;5078888;28;45414;-73
2022/03/03 01:52:23;;;;;;;;;72.50;56.25;;;;;9.32;58.16;101235.28;5085140;28;44900;-75
2022/03/03 01:54:53;;;;;;;;;69.25;52.25;;;;;9.30;58.20;101231.91;5080540;28;46144;-73
2022/03/03 01:57:40;;;;;;;;;71.50;53.75;;;;;9.32;58.18;101231.72;5065748;28;45416;-74
2022/03/03 02:00:10;;;;;;;;;68.50;54.50;;;;;9.31;58.20;101239.09;5071203;28;45371;-79
2022/03/03 02:02:37;;;;;;;;;71.75;54.00;;;;;9.31;58.55;101239.09;5084326;28;45518;-73
2022/03/03 02:05:02;;;;;;;;;71.00;54.50;;;;;9.34;57.96;101240.59;5082699;28;46055;-81
2022/03/03 02:07:28;;;;;;;;;72.75;56.50;;;;;9.29;58.07;101230.19;5085146;28;45337;-81
2022/03/03 02:09:54;;;;;;;;;74.50;55.50;;;;;9.31;58.30;101236.34;5084077;28;45362;-79
2022/03/03 02:12:19;;;;;;;;;74.00;55.50;;;;;9.35;58.36;101237.66;5083909;28;45906;-80
2022/03/03 02:14:47;;;;;;;;;70.25;55.00;;;;;9.36;57.95;101239.38;5081961;28;45952;-76
2022/03/03 02:17:14;;;;;;;;;65.75;52.75;;;;;9.38;58.27;101235.59;5078127;28;45766;-74
2022/03/03 02:19:40;;;;;;;;;78.75;55.50;;;;;9.38;58.21;101238.34;5064674;28;45505;-79
2022/03/03 02:22:07;;;;;;;;;74.75;57.00;;;;;9.39;58.01;101235.41;5060743;28;45913;-74
2022/03/03 02:24:34;;;;;;;;;72.00;54.75;;;;;9.42;58.01;101234.19;5078210;28;46204;-74
2022/03/03 02:27:00;;;;;;;;;72.25;54.75;;;;;9.48;57.64;101233.44;5060188;28;45746;-77
2022/03/03 02:29:27;;;;;;;;;66.75;52.50;;;;;9.51;57.96;101228.41;5074713;28;45394;-74
2022/03/03 02:31:53;;;;;;;;;70.25;53.75;;;;;9.53;57.67;101226.31;5071521;28;46503;-80
2022/03/03 02:34:18;;;;;;;;;69.75;53.50;;;;;9.55;57.92;101223.41;5058824;28;46256;-78
2022/03/03 02:36:44;;;;;;;;;73.00;57.00;;;;;9.61;57.95;101230.00;5074178;28;45526;-74
2022/03/03 02:39:09;;;;;;;;;65.75;52.00;;;;;9.64;57.66;101218.66;5073986;28;45856;-74
2022/03/03 02:41:35;;;;;;;;;69.25;54.75;;;;;9.70;57.11;101220.63;5055137;28;46432;-74
2022/03/03 02:44:02;;;;;;;;;66.25;53.00;;;;;9.74;57.14;101221.94;5073352;28;46254;-74
2022/03/03 02:46:27;;;;;;;;;70.75;55.00;;;;;9.82;57.31;101212.78;5073670;28;45537;-73
2022/03/03 02:48:53;;;;;;;;;72.50;52.75;;;;;9.86;56.64;101216.84;5054857;28;45493;-74
2022/03/03 02:51:18;;;;;;;;;67.75;53.25;;;;;9.90;57.07;101210.78;5073838;28;46065;-78
2022/03/03 02:53:44;;;;;;;;;68.50;53.00;;;;;9.96;56.88;101209.16;5074161;28;46193;-74
2022/03/03 02:56:10;;;;;;;;;69.50;53.00;;;;;10.00;56.04;101204.13;5055367;28;45654;-77
2022/03/03 02:58:35;;;;;;;;;67.50;52.25;;;;;10.06;56.79;101193.25;5074863;28;45357;-79
2022/03/03 03:01:02;;;;;;;;;67.25;52.00;;;;;10.04;56.38;101200.84;5075245;28;45797;-79
2022/03/03 03:03:28;;;;;;;;;70.75;52.50;;;;;10.07;56.67;101192.22;5074234;28;46225;-73
2022/03/03 03:05:53;;;;;;;;;68.00;53.25;;;;;10.06;56.53;101186.94;5060012;28;45359;-75
2022/03/03 03:08:19;;;;;;;;;71.50;55.00;;;;;10.04;56.66;101184.38;5055464;28;45742;-73
2022/03/03 03:10:44;;;;;;;;;77.50;57.75;;;;;10.06;56.75;101189.69;5055268;28;45554;-72
2022/03/03 03:13:17;;;;;;;;;67.75;54.50;;;;;10.04;56.87;101183.53;5061835;28;45401;-78
2022/03/03 03:15:43;;;;;;;;;68.25;53.00;;;;;10.02;56.70;101174.66;5077600;28;45926;-79
2022/03/03 03:18:20;;;;;;;;;72.00;54.50;;;;;10.01;56.75;101172.94;5082117;28;45537;-79
2022/03/03 03:20:47;;;;;;;;;73.50;56.00;;;;;10.01;56.92;101179.28;5079992;28;45446;-74
2022/03/03 03:23:15;;;;;;;;;72.00;54.25;;;;;10.06;56.50;101165.84;5059337;28;46365;-72
2022/03/03 03:25:43;;;;;;;;;67.25;52.25;;;;;10.10;57.19;101170.94;5077819;28;45542;-74
2022/03/03 03:28:10;;;;;;;;;70.75;54.75;;;;;10.10;56.94;101165.47;5077528;28;45486;-73
2022/03/03 03:30:35;;;;;;;;;73.25;54.25;;;;;10.13;56.73;101165.91;5076651;28;45403;-72
2022/03/03 03:33:01;;;;;;;;;67.25;52.00;;;;;10.17;56.93;101169.94;5080508;28;45415;-73
2022/03/03 03:35:26;;;;;;;;;66.50;51.25;;;;;10.20;56.58;101155.03;5081988;28;45517;-74
2022/03/03 03:37:52;;;;;;;;;67.50;53.75;;;;;10.23;56.44;101168.31;5086816;28;44821;-73
2022/03/03 03:40:18;;;;;;;;;70.00;52.75;;;;;10.23;56.85;101165.59;5079050;28;45705;-74
2022/03/03 03:42:44;;;;;;;;;70.00;54.25;;;;;10.22;56.84;101158.41;5063250;28;45760;-75
2022/03/03 03:45:10;;;;;;;;;68.00;52.50;;;;;10.19;56.60;101158.78;5044701;28;45408;-74
2022/03/03 03:47:37;;;;;;;;;70.50;53.75;;;;;10.20;56.44;101155.03;5062373;28;45427;-74
2022/03/03 03:50:04;;;;;;;;;69.00;53.00;;;;;10.22;56.88;101150.19;5061285;28;45419;-73
2022/03/03 03:52:30;;;;;;;;;72.00;54.25;;;;;10.22;57.02;101144.69;5043597;28;45492;-75
2022/03/03 03:54:55;;;;;;;;;67.75;53.75;;;;;10.20;56.96;101144.06;5043768;28;45535;-73
2022/03/03 03:57:21;;;;;;;;;65.75;50.75;;;;;10.21;56.63;101137.53;5055556;28;45841;-73
2022/03/03 03:59:47;;;;;;;;;68.50;54.75;;;;;10.18;56.67;101130.53;5051119;28;45406;-74
2022/03/03 04:02:12;;;;;;;;;69.50;51.75;;;;;10.21;57.26;101137.53;5051217;28;45443;-73
2022/03/03 04:04:38;;;;;;;;;71.00;54.25;;;;;10.21;57.41;101140.28;5051890;28;45363;-73
2022/03/03 04:07:03;;;;;;;;;70.00;54.25;;;;;10.17;56.54;101139.81;5066011;28;45300;-79
2022/03/03 04:09:28;;;;;;;;;63.25;49.00;;;;;10.20;56.88;101136.66;5073668;28;45376;-79
2022/03/03 04:11:57;;;;;;;;;65.75;50.50;;;;;10.20;57.14;101135.84;5073174;28;45345;-76
2022/03/03 04:14:22;;;;;;;;;67.25;51.00;;;;;10.16;57.00;101124.41;5068198;28;45783;-73
2022/03/03 04:16:48;;;;;;;;;67.00;51.50;;;;;10.26;57.12;101132.31;5072607;28;45437;-73
2022/03/03 04:19:14;;;;;;;;;66.75;50.50;;;;;10.29;57.19;101122.84;5072304;28;45486;-73
2022/03/03 04:21:40;;;;;;;;;61.25;48.50;;;;;10.31;57.24;101124.31;5072856;28;45405;-78
2022/03/03 04:24:06;;;;;;;;;67.75;50.75;;;;;10.36;56.97;101115.53;5071961;28;45748;-77
2022/03/03 04:26:33;;;;;;;;;65.50;50.25;;;;;10.34;57.11;101104.75;5072465;28;45807;-78
2022/03/03 04:28:58;;;;;;;;;72.50;53.50;;;;;10.35;56.89;101114.69;5072031;28;45386;-78
2022/03/03 04:31:24;;;;;;;;;65.00;50.25;;;;;10.33;57.46;101115.88;5053877;28;47405;-79
2022/03/03 04:33:49;;;;;;;;;67.75;53.00;;;;;10.32;57.23;101108.72;5073282;28;45499;-78
2022/03/03 04:36:15;;;;;;;;;66.00;52.00;;;;;10.25;57.04;101108.66;5076173;28;45401;-78
2022/03/03 04:38:41;;;;;;;;;68.00;52.00;;;;;10.22;57.97;101103.56;5073939;28;45944;-73
2022/03/03 04:41:06;;;;;;;;;72.50;54.00;;;;;10.22;57.92;101093.47;5062244;28;45771;-74
2022/03/03 04:43:32;;;;;;;;;65.00;52.25;;;;;10.22;57.48;101103.56;5051398;28;45784;-79
2022/03/03 04:45:57;;;;;;;;;62.75;50.50;;;;;10.24;58.22;101096.88;5051153;28;45790;-79
2022/03/03 04:48:29;;;;;;;;;69.75;53.75;;;;;10.25;58.07;101098.56;5050900;28;45580;-74
2022/03/03 04:50:56;;;;;;;;;72.00;55.00;;;;;10.31;57.94;101105.13;5052968;28;45923;-78
2022/03/03 04:53:21;;;;;;;;;70.00;53.00;;;;;10.38;57.40;101097.00;5051427;28;45730;-74
2022/03/03 04:55:47;;;;;;;;;67.50;53.00;;;;;10.46;57.29;101093.25;5052256;28;45326;-73
2022/03/03 04:58:12;;;;;;;;;69.00;52.75;;;;;10.50;56.95;101089.06;5055108;28;45782;-74
2022/03/03 05:00:38;;;;;;;;;67.25;52.00;;;;;10.50;57.06;101084.44;5054817;28;46159;-74
2022/03/03 05:03:03;;;;;;;;;62.50;44.00;;;;;10.54;56.96;101076.66;5054144;28;45745;-73
2022/03/03 05:05:29;;;;;;;;;66.50;53.00;;;;;10.55;57.06;101087.44;5056561;28;45771;-73
2022/03/03 05:07:54;;;;;;;;;70.25;53.00;;;;;10.57;56.98;101092.72;5056904;28;47201;-79
2022/03/03 05:10:19;;;;;;;;;65.75;51.25;;;;;10.56;56.94;101083.63;5059103;28;46475;-79
2022/03/03 05:12:45;;;;;;;;;69.00;53.00;;;;;10.58;57.27;101087.03;5076537;28;45946;-79
2022/03/03 05:15:11;;;;;;;;;70.25;53.00;;;;;10.65;56.96;101087.06;5060975;28;45695;-74
2022/03/03 05:17:36;;;;;;;;;79.00;67.75;;;;;10.68;57.51;101088.56;5055338;28;45951;-74
2022/03/03 05:20:03;;;;;;;;;68.25;52.50;;;;;10.66;57.30;101087.91;5035788;28;46659;-73
2022/03/03 05:22:28;;;;;;;;;73.75;55.25;;;;;10.64;56.86;101090.84;5037430;28;45399;-79
2022/03/03 05:24:54;;;;;;;;;70.25;54.25;;;;;10.61;56.96;101088.50;5055287;28;45308;-78
2022/03/03 05:27:19;;;;;;;;;67.25;52.50;;;;;10.63;56.76;101091.03;5054423;28;45466;-74
2022/03/03 05:29:45;;;;;;;;;68.50;53.75;;;;;10.62;56.73;101092.94;5053862;28;46279;-72
2022/03/03 05:32:10;;;;;;;;;70.50;55.00;;;;;10.60;56.92;101090.41;5036139;28;45655;-78
2022/03/03 05:34:36;;;;;;;;;74.75;57.00;;;;;10.57;56.98;101087.22;5036291;28;45418;-78
2022/03/03 05:37:02;;;;;;;;;69.75;53.75;;;;;10.62;56.96;101089.38;5054253;28;45768;-74
2022/03/03 05:39:29;;;;;;;;;70.50;54.50;;;;;10.66;56.77;101093.38;5058718;28;45742;-79
2022/03/03 05:41:55;;;;;;;;;74.75;55.50;;;;;10.69;57.11;101103.94;5036259;28;45953;-79
2022/03/03 05:44:21;;;;;;;;;74.25;55.75;;;;;10.70;56.75;101097.44;5035623;28;45806;-79
2022/03/03 05:46:47;;;;;;;;;68.25;53.00;;;;;10.69;56.95;101087.50;5035470;28;46381;-79
2022/03/03 05:49:13;;;;;;;;;69.00;53.75;;;;;10.72;56.81;101087.97;5053375;28;46360;-74
2022/03/03 05:51:38;;;;;;;;;70.00;54.00;;;;;10.77;57.06;101092.84;5053996;28;45651;-78
2022/03/03 05:54:04;;;;;;;;;69.75;53.00;;;;;10.76;56.59;101092.00;5056426;28;45321;-73
2022/03/03 05:56:35;;;;;;;;;69.75;54.25;;;;;10.75;56.32;101093.03;5053336;28;45561;-79
2022/03/03 05:59:06;;;;;;;;;73.50;57.00;;;;;10.74;56.84;101096.00;5054212;28;45921;-80
2022/03/03 06:01:35;;;;;;;;;72.50;54.25;;;;;10.73;57.18;101092.41;5035309;28;45710;-78
2022/03/03 06:04:01;;;;;;;;;69.75;51.75;;;;;10.70;56.91;101090.06;5054034;28;45479;-72
2022/03/03 06:06:34;;;;;;;;;70.50;55.25;;;;;10.68;57.26;101089.41;5053320;28;45754;-79
2022/03/03 06:09:08;;;;;;;;;73.50;54.50;;;;;10.65;57.06;101078.84;5039701;28;48565;-80
2022/03/03 06:11:42;;;;;;;;;70.50;52.50;;;;;10.65;57.32;101083.47;5054814;28;45432;-80
2022/03/03 06:14:08;;;;;;;;;70.75;54.00;;;;;10.68;57.46;101086.66;5058699;28;45293;-81
2022/03/03 06:16:35;;;;;;;;;66.00;51.75;;;;;10.71;57.51;101085.41;5056130;28;46068;-79
2022/03/03 06:19:02;;;;;;;;;66.25;52.25;;;;;10.77;57.72;101079.97;5073733;28;46356;-74
2022/03/03 06:21:27;;;;;;;;;74.00;56.50;;;;;10.82;57.46;101086.75;5055904;28;45875;-80
2022/03/03 06:23:53;;;;;;;;;66.75;53.50;;;;;10.83;57.20;101089.28;5055933;28;45598;-80
2022/03/03 06:26:20;;;;;;;;;69.00;53.00;;;;;10.82;56.68;101084.00;5055634;28;46007;-74
2022/03/03 06:28:46;;;;;;;;;64.00;50.25;;;;;10.84;57.41;101095.59;5074071;28;45384;-79
2022/03/03 06:31:13;;;;;;;;;77.25;62.75;;;;;10.87;57.25;101095.22;5073548;28;45573;-79
2022/03/03 06:33:40;;;;;;;;;69.25;52.00;;;;;10.91;57.08;101097.38;5074590;28;45621;-74
2022/03/03 06:36:06;;;;;;;;;67.00;52.50;;;;;10.97;57.08;101094.84;5074705;28;45564;-79
2022/03/03 06:38:31;;;;;;;;;69.50;54.75;;;;;11.00;56.93;101080.72;5055995;28;48026;-73
2022/03/03 06:40:57;;;;;;;;;67.00;51.50;;;;;11.09;57.26;101087.72;5066363;28;45749;-79
2022/03/03 06:43:24;;;;;;;;;67.50;52.50;;;;;11.10;56.88;101087.53;5053548;28;45867;-74
2022/03/03 06:45:50;;;;;;;;;67.50;53.00;;;;;11.12;56.42;101096.41;5034590;28;46038;-73
2022/03/03 06:48:16;;;;;;;;;70.50;53.00;;;;;11.18;56.75;101104.88;5053324;28;46415;-78
2022/03/03 06:50:43;;;;;;;;;71.75;54.25;;;;;11.15;56.92;101103.38;5053840;28;45379;-79
2022/03/03 06:53:09;;;;;;;;;67.25;51.75;;;;;11.16;56.63;101104.25;5053410;28;45786;-74
2022/03/03 06:55:36;;;;;;;;;69.75;53.50;;;;;11.13;57.16;101108.22;5052767;28;45650;-73
2022/03/03 06:58:02;;;;;;;;;70.00;54.25;;;;;11.09;56.59;101104.19;5053145;28;46953;-80
2022/03/03 07:00:34;;;;;;;;;72.75;55.00;;;;;11.08;57.20;101103.34;5055454;28;45426;-74
2022/03/03 07:03:04;;;;;;;;;68.25;52.75;;;;;11.12;56.67;101106.53;5058420;28;45725;-79
2022/03/03 07:05:34;;;;;;;;;71.25;54.75;;;;;11.13;56.78;101105.50;5050821;28;46054;-80
2022/03/03 07:07:59;;;;;;;;;70.00;54.50;;;;;11.13;57.39;101108.22;5055381;28;47705;-79
2022/03/03 07:10:25;;;;;;;;;69.75;52.75;;;;;11.13;57.04;101106.31;5055127;28;46080;-81
2022/03/03 07:12:53;;;;;;;;;71.50;54.00;;;;;11.15;57.33;101103.38;5055287;28;45498;-74
2022/03/03 07:15:20;;;;;;;;;61.75;49.00;;;;;11.15;57.07;101114.34;5054033;28;45773;-73
2022/03/03 07:17:51;;;;;;;;;69.75;53.50;;;;;11.16;56.83;101105.06;5072979;28;46371;-80
2022/03/03 07:20:40;;;;;;;;;66.25;51.75;;;;;11.23;57.24;101110.63;5072340;28;45915;-74
2022/03/03 07:23:29;;;;;;;;;67.25;52.00;;;;;11.26;56.82;101116.53;5073247;28;45780;-79
2022/03/03 07:25:59;;;;;;;;;68.25;53.75;;;;;11.28;57.00;101106.19;5073273;28;45503;-74
2022/03/03 07:28:28;;;;;;;;;71.00;54.00;;;;;11.34;56.98;101109.19;5054422;28;48040;-79
2022/03/03 07:30:55;;;;;;;;;69.00;53.50;;;;;11.37;56.29;101112.34;5072603;28;45807;-80
2022/03/03 07:33:38;;;;;;;;;68.75;54.25;;;;;11.44;56.66;101107.72;5072600;28;45481;-73
2022/03/03 07:36:07;;;;;;;;;64.50;51.50;;;;;11.53;56.57;101104.81;5054355;28;46781;-74
2022/03/03 07:38:36;;;;;;;;;70.75;52.50;;;;;11.59;56.56;101112.22;5072836;28;46464;-75
2022/03/03 07:41:03;;;;;;;;;67.25;51.25;;;;;11.60;56.36;101102.91;5054864;28;45643;-78
2022/03/03 07:43:28;;;;;;;;;73.00;54.75;;;;;11.66;56.36;101121.31;5073464;28;45613;-72
2022/03/03 07:45:54;;;;;;;;;73.75;53.50;;;;;11.68;56.57;101104.63;5073195;28;45800;-74
2022/03/03 07:48:23;;;;;;;;;71.75;53.25;;;;;11.78;56.40;101113.31;5072956;28;45479;-78
2022/03/03 07:50:49;;;;;;;;;68.50;53.25;;;;;11.86;56.32;101106.81;5073330;28;45456;-79
2022/03/03 07:53:15;;;;;;;;;67.25;53.00;;;;;11.86;56.02;101104.06;5073970;28;45390;-75
2022/03/03 07:55:48;;;;;;;;;68.00;52.25;;;;;11.97;56.30;101111.69;5072883;28;45357;-73
2022/03/03 07:58:16;;;;;;;;;68.75;53.50;;;;;12.02;56.38;101109.19;5072689;28;45889;-74
2022/03/03 08:00:47;;;;;;;;;66.50;52.00;;;;;12.08;56.61;101104.72;5072282;28;45379;-74
2022/03/03 08:03:19;;;;;;;;;69.50;52.00;;;;;12.16;56.39;101110.03;5071955;28;45564;-79
2022/03/03 08:05:47;;;;;;;;;67.25;51.75;;;;;12.26;55.79;101106.84;5072023;28;45723;-78
2022/03/03 08:08:16;;;;;;;;;66.50;53.25;;;;;12.31;55.58;101107.06;5072269;28;45792;-79
2022/03/03 08:10:45;;;;;;;;;70.75;53.25;;;;;12.29;55.49;101088.03;5072409;28;45655;-73
2022/03/03 08:13:13;;;;;;;;;68.00;53.00;;;;;12.46;55.38;101107.69;5071865;28;45771;-73
2022/03/03 08:15:39;;;;;;;;;67.00;51.00;;;;;12.56;55.66;101103.66;5052095;28;46024;-73
2022/03/03 08:18:06;;;;;;;;;65.25;48.50;;;;;12.67;55.77;101100.28;5051926;28;45444;-74
2022/03/03 08:20:33;;;;;;;;;55.25;41.75;;;;;12.74;55.39;101095.63;5051835;28;45715;-78
2022/03/03 08:23:00;;;;;;;;;66.00;51.00;;;;;12.89;55.15;101098.97;5052466;28;45430;-79
2022/03/03 08:25:27;;;;;;;;;60.25;48.50;;;;;13.04;55.07;101097.88;5033546;28;46201;-76
2022/03/03 08:27:54;;;;;;;;;63.50;50.75;;;;;13.19;55.11;101090.19;5051379;28;45466;-74
2022/03/03 08:30:21;;;;;;;;;64.00;51.00;;;;;13.34;55.24;101092.69;5051977;28;45339;-74
2022/03/03 08:33:11;;;;;;;;;56.25;44.00;;;;;13.49;55.46;101092.41;5055014;28;45671;-74
2022/03/03 08:35:41;;;;;;;;;46.75;36.75;;;;;13.67;55.91;101094.44;5056905;28;45528;-78
2022/03/03 08:38:16;;;;;;;;;51.75;39.50;;;;;13.82;55.16;101085.84;5056546;28;46290;-79
2022/03/03 08:40:44;;;;;;;;;53.50;40.75;;;;;13.83;55.40;101086.69;5071933;28;45307;-72
2022/03/03 08:43:16;;;;;;;;;48.75;35.50;;;;;13.90;55.68;101093.84;5051850;28;45351;-75
2022/03/03 08:45:42;;;;;;;;;47.00;36.75;;;;;14.00;54.96;101092.53;5069632;28;44725;-71
2022/03/03 08:48:12;;;;;;;;;53.67;40.00;;;;;14.16;54.97;101100.25;5071859;28;46286;-78
2022/03/03 08:50:41;;;;;;;;;54.75;45.00;;;;;14.35;54.55;101101.16;5070197;28;45409;-72
2022/03/03 08:53:07;;;;;;;;;50.67;41.33;;;;;14.43;53.89;101102.78;5068443;28;45797;-78
2022/03/03 08:55:35;;;;;;;;;45.50;35.50;;;;;14.34;54.99;101106.88;5050682;28;46078;-73
2022/03/03 08:58:00;;;;;;;;;59.25;46.75;;;;;14.38;55.24;101110.91;5067568;28;45715;-72
2022/03/03 09:00:27;;;;;;;;;58.00;44.75;;;;;14.45;54.77;101111.69;5063553;28;45808;-73
2022/03/03 09:02:53;;;;;;;;;52.00;40.75;;;;;14.53;55.07;101114.16;5071858;28;44816;-79
2022/03/03 09:05:20;;;;;;;;;51.50;40.75;;;;;14.64;53.94;101116.22;5077878;28;44988;-79
2022/03/03 09:07:46;;;;;;;;;54.75;42.50;;;;;14.74;53.86;101114.84;5076970;28;45587;-78
2022/03/03 09:10:12;;;;;;;;;56.75;44.50;;;;;14.87;53.83;101111.13;5067955;28;45464;-73
2022/03/03 09:12:39;;;;;;;;;55.50;42.75;;;;;14.99;53.42;101115.63;5045002;28;45934;-78
2022/03/03 09:15:07;;;;;;;;;52.50;40.75;;;;;15.13;52.88;101108.03;5091029;28;44850;-78
2022/03/03 09:17:33;;;;;;;;;52.67;43.00;;;;;15.28;52.40;101104.03;5098871;28;45410;-79
2022/03/03 09:20:02;;;;;;;;;57.67;43.00;;;;;15.36;51.96;101101.81;5085313;28;45343;-75
2022/03/03 09:22:28;;;;;;;;;54.00;44.25;;;;;15.50;51.95;101107.16;5065048;28;45349;-73
2022/03/03 09:24:54;;;;;;;;;55.33;42.33;;;;;15.57;52.04;101105.16;5084040;28;45453;-72
2022/03/03 09:27:20;;;;;;;;;56.00;43.00;;;;;15.70;51.49;101113.28;5084441;28;45420;-73
2022/03/03 09:29:45;;;;;;;;;39.33;36.67;;;;;15.82;51.24;101106.97;5083562;28;45434;-75
2022/03/03 09:32:13;;;;;;;;;50.33;40.33;;;;;15.95;51.00;101105.94;5084269;28;45688;-73
2022/03/03 09:34:39;;;;;;;;;44.00;37.67;;;;;15.99;51.08;101116.28;5075242;28;46112;-78
2022/03/03 09:37:04;;;;;;;;;54.75;42.50;;;;;16.04;50.22;101108.13;5090925;28;45240;-72
2022/03/03 09:39:30;;;;;;;;;51.33;39.33;;;;;16.01;50.89;101100.28;5082983;28;45308;-73
2022/03/03 09:41:55;;;;;;;;;53.67;43.33;;;;;16.11;50.40;101096.09;5065313;28;45371;-72
2022/03/03 09:44:22;;;;;;;;;49.00;39.67;;;;;16.16;50.14;101096.25;5063151;28;45328;-72
2022/03/03 09:46:48;;;;;;;;;52.33;42.33;;;;;16.27;50.20;101105.66;5061909;28;45399;-72
2022/03/03 09:49:14;;;;;;;;;54.33;40.33;;;;;16.38;49.72;101105.66;5060944;28;45867;-74
2022/03/03 09:51:39;;;;;;;;;48.67;39.67;;;;;16.46;50.06;101098.09;5060182;28;45509;-74
2022/03/03 09:54:06;;;;;;;;;49.33;40.00;;;;;16.48;48.88;101096.78;5055257;28;45766;-78
2022/03/03 09:56:32;;;;;;;;;43.67;35.33;;;;;16.55;49.37;101099.41;5054837;28;45827;-80
2022/03/03 09:58:57;;;;;;;;;51.67;40.00;;;;;16.63;48.82;101098.22;5035994;28;45680;-79
2022/03/03 10:01:30;;;;;;;;;50.33;39.00;;;;;16.73;48.95;101110.38;5035363;28;45372;-73
2022/03/03 10:04:22;;;;;;;;;50.00;40.00;;;;;16.88;48.30;101101.59;5034893;28;45727;-72
2022/03/03 10:07:05;;;;;;;;;50.33;39.00;;;;;17.10;48.27;101104.59;5068071;28;45680;-80
2022/03/03 10:09:32;;;;;;;;;43.67;36.33;;;;;17.06;48.74;101097.84;5058150;28;45693;-72
2022/03/03 10:12:06;;;;;;;;;49.67;39.33;;;;;17.19;47.82;101102.28;5076431;28;45417;-79
2022/03/03 10:14:35;;;;;;;;;48.67;37.00;;;;;17.31;47.14;101098.66;5064527;28;45766;-79
2022/03/03 10:17:01;;;;;;;;;49.67;36.67;;;;;17.24;48.03;101104.31;5054309;28;45835;-78
2022/03/03 10:19:27;;;;;;;;;49.67;41.67;;;;;17.19;48.12;101098.69;5054230;28;45669;-75
2022/03/03 10:21:53;;;;;;;;;42.67;36.00;;;;;17.19;48.35;101107.00;5054318;28;45490;-74
2022/03/03 10:24:21;;;;;;;;;50.67;39.67;;;;;17.16;47.69;101096.41;5036091;28;47182;-73
2022/03/03 10:26:56;;;;;;;;;46.67;37.00;;;;;17.05;47.68;101101.72;5054226;28;46125;-80
2022/03/03 10:29:22;;;;;;;;;39.33;34.33;;;;;17.06;47.81;101097.00;5055572;28;45799;-79
2022/03/03 10:31:49;;;;;;;;;46.67;38.33;;;;;17.12;47.58;101096.03;5055772;28;45708;-74
2022/03/03 10:34:25;;;;;;;;;44.00;38.00;;;;;17.11;47.77;101091.56;5036880;28;45486;-75
2022/03/03 10:37:07;;;;;;;;;46.33;35.67;;;;;17.22;47.11;101092.63;5036042;28;46514;-74
2022/03/03 10:39:45;;;;;;;;;49.00;38.67;;;;;17.32;47.36;101095.63;5035815;28;45887;-81
2022/03/03 10:42:17;;;;;;;;;42.00;36.33;;;;;17.44;48.00;101098.34;5053607;28;45443;-74
2022/03/03 10:44:42;;;;;;;;;51.67;39.33;;;;;17.59;48.25;101095.03;5054707;28;46014;-78
2022/03/03 10:47:21;;;;;;;;;56.00;43.00;;;;;17.58;46.96;101101.69;5036294;28;48159;-79
2022/03/03 10:49:54;;;;;;;;;49.33;37.33;;;;;17.49;47.97;101090.16;5054709;28;45498;-73
2022/03/03 10:52:27;;;;;;;;;50.67;38.67;;;;;17.44;46.84;101093.66;5053994;28;45449;-72
2022/03/03 10:55:03;;;;;;;;;42.67;37.00;;;;;17.46;47.20;101091.47;5036383;28;47091;-78
2022/03/03 10:57:44;;;;;;;;;130.33;115.67;;;;;17.40;47.50;101094.41;5054875;28;45380;-73
2022/03/03 11:00:10;;;;;;;;;85.75;76.00;;;;;17.47;47.51;101084.84;5036518;28;46243;-80
2022/03/03 11:02:46;;;;;;;;;58.00;43.67;;;;;17.46;47.77;101091.47;5055111;28;45792;-74
2022/03/03 11:05:13;;;;;;;;;53.33;43.67;;;;;17.50;47.18;101091.84;5056204;28;45584;-74
2022/03/03 11:07:44;;;;;;;;;51.00;42.25;;;;;17.52;47.10;101084.09;5074940;28;45478;-78
2022/03/03 11:10:12;;;;;;;;;47.33;39.33;;;;;17.67;47.10;101083.56;5056261;28;45523;-79
2022/03/03 11:12:45;;;;;;;;;51.67;40.33;;;;;17.75;46.81;101083.13;5075137;28;45799;-80
2022/03/03 11:15:12;;;;;;;;;57.33;42.67;;;;;17.88;46.44;101083.94;5059017;28;46187;-73